Time;durP1;ratioP1;P1;durP2;ratioP2;P2;SDS_P1;SDS_P2;PMS_P1;PMS_P2;Temp;Humidity;BMP_temperature;BMP_pressure;BME280_temperature;BME280_humidity;BME280_pressure;Samples;Min_cycle;Max_cycle;Signal;HPM_P1;HPM_P2
2023/05/02 00:00:48;;;;;;;3.33;3.03;;;18.30;99.90;;;;;;5086679;28;20197;-77
2023/05/02 00:03:19;;;;;;;6.72;2.83;;;18.50;99.90;;;;;;5079967;28;20232;-79
2023/05/02 00:05:50;;;;;;;2.58;1.65;;;18.50;99.90;;;;;;5095492;28;20197;-75
2023/05/02 00:08:21;;;;;;;3.25;1.70;;;18.60;99.90;;;;;;5090278;28;20189;-78
2023/05/02 00:10:52;;;;;;;2.05;1.60;;;18.60;99.90;;;;;;5086007;28;20211;-76
2023/05/02 00:13:24;;;;;;;1.80;1.60;;;18.70;99.90;;;;;;5109805;28;20206;-73
2023/05/02 00:15:57;;;;;;;1.65;1.40;;;18.80;99.90;;;;;;5115764;28;20272;-74
2023/05/02 00:18:28;;;;;;;2.65;1.60;;;18.80;99.90;;;;;;5115679;28;20184;-75
2023/05/02 00:20:59;;;;;;;2.75;1.52;;;18.90;99.90;;;;;;5116690;28;20191;-74
2023/05/02 00:23:33;;;;;;;1.88;1.50;;;18.90;99.90;;;;;;5115607;28;20188;-78
2023/05/02 00:26:04;;;;;;;1.60;1.42;;;19.10;99.90;;;;;;5115331;28;20199;-75
2023/05/02 00:28:35;;;;;;;1.90;1.55;;;19.20;99.90;;;;;;5115800;28;20278;-73
2023/05/02 00:31:08;;;;;;;1.65;1.55;;;19.40;99.90;;;;;;5115415;27;20192;-74
2023/05/02 00:33:39;;;;;;;1.83;1.63;;;19.40;99.90;;;;;;5115501;28;20662;-75
2023/05/02 00:36:20;;;;;;;1.30;1.20;;;19.50;99.90;;;;;;5115427;28;20678;-75
2023/05/02 00:38:51;;;;;;;1.95;1.60;;;19.50;99.90;;;;;;5112509;28;20188;-73
2023/05/02 00:41:22;;;;;;;2.78;1.40;;;19.60;99.90;;;;;;5074522;28;20208;-74
2023/05/02 00:43:53;;;;;;;1.85;1.40;;;19.70;99.90;;;;;;5074613;28;20189;-74
2023/05/02 00:46:26;;;;;;;2.10;1.40;;;19.80;99.90;;;;;;5074554;28;20222;-76
2023/05/02 00:48:57;;;;;;;1.90;1.27;;;20.00;99.90;;;;;;5074376;28;20189;-74
2023/05/02 00:51:28;;;;;;;4.35;1.98;;;20.10;99.90;;;;;;5074707;28;20193;-73
2023/05/02 00:54:00;;;;;;;3.47;1.60;;;20.10;99.90;;;;;;5074222;28;20193;-74
2023/05/02 00:56:31;;;;;;;1.23;1.13;;;20.10;99.90;;;;;;5074323;28;20224;-77
2023/05/02 00:59:03;;;;;;;2.63;1.55;;;20.10;99.90;;;;;;5074785;28;20189;-74
2023/05/02 01:01:55;;;;;;;1.75;1.30;;;20.10;99.90;;;;;;5074408;28;20193;-78
2023/05/02 01:04:39;;;;;;;1.40;1.27;;;20.20;99.90;;;;;;5074186;28;20236;-74
2023/05/02 01:07:27;;;;;;;2.13;1.40;;;20.20;99.90;;;;;;5074209;28;20189;-72
2023/05/02 01:10:11;;;;;;;2.03;1.25;;;20.20;99.90;;;;;;5074003;28;20193;-73
2023/05/02 01:12:48;;;;;;;3.17;1.35;;;20.20;99.90;;;;;;5074056;28;20188;-73
2023/05/02 01:15:22;;;;;;;1.70;1.27;;;20.30;99.90;;;;;;5074211;28;20225;-77
2023/05/02 01:17:57;;;;;;;1.75;1.30;;;20.30;99.90;;;;;;5073981;28;20280;-80
2023/05/02 01:20:32;;;;;;;1.52;1.20;;;20.40;99.90;;;;;;5073894;28;20188;-77
2023/05/02 01:23:13;;;;;;;2.53;1.30;;;20.40;99.90;;;;;;5073632;28;20651;-73
2023/05/02 01:26:09;;;;;;;1.73;1.30;;;20.50;99.90;;;;;;5073772;28;20193;-72
2023/05/02 01:28:52;;;;;;;1.67;1.38;;;20.60;99.90;;;;;;5073693;28;20189;-75
2023/05/02 01:31:23;;;;;;;1.50;1.40;;;20.70;99.90;;;;;;5073838;28;20193;-73
2023/05/02 01:33:56;;;;;;;2.13;1.30;;;20.80;99.90;;;;;;5073584;28;20191;-73
2023/05/02 01:36:30;;;;;;;1.77;1.48;;;20.90;99.90;;;;;;5073561;28;20225;-75
2023/05/02 01:39:03;;;;;;;1.60;1.20;;;20.90;99.90;;;;;;5073384;28;20246;-75
2023/05/02 01:41:37;;;;;;;2.85;1.27;;;21.00;99.90;;;;;;5073662;28;20188;-78
2023/05/02 01:44:12;;;;;;;2.05;1.20;;;21.00;99.90;;;;;;5073572;28;20188;-74
2023/05/02 01:46:46;;;;;;;1.90;1.23;;;21.10;99.90;;;;;;5073457;28;20554;-74
2023/05/02 01:49:17;;;;;;;2.83;1.55;;;21.20;99.90;;;;;;5073938;28;20196;-77
2023/05/02 01:51:51;;;;;;;2.92;1.20;;;21.40;99.90;;;;;;5073234;28;20192;-74
2023/05/02 01:54:27;;;;;;;3.30;1.20;;;21.40;99.90;;;;;;5073432;28;20205;-76
2023/05/02 01:57:00;;;;;;;2.40;1.20;;;21.40;99.90;;;;;;5073259;28;20231;-74
2023/05/02 01:59:34;;;;;;;1.30;1.20;;;21.50;99.90;;;;;;5072950;28;20195;-75
2023/05/02 02:02:07;;;;;;;2.03;1.40;;;21.60;99.90;;;;;;5073734;28;20202;-74
2023/05/02 02:04:41;;;;;;;1.77;1.38;;;21.70;99.90;;;;;;5073299;28;20192;-77
2023/05/02 02:07:15;;;;;;;1.48;1.25;;;21.70;99.90;;;;;;5073067;28;20197;-75
2023/05/02 02:09:46;;;;;;;2.75;1.50;;;21.70;99.90;;;;;;5073285;28;20186;-76
2023/05/02 02:12:26;;;;;;;1.30;1.17;;;21.70;99.90;;;;;;5073210;28;20195;-75
2023/05/02 02:15:05;;;;;;;2.40;1.02;;;21.80;99.90;;;;;;5073435;28;20189;-80
2023/05/02 02:17:43;;;;;;;1.58;1.15;;;21.70;99.90;;;;;;5073174;28;20204;-75
2023/05/02 02:20:16;;;;;;;1.77;1.50;;;21.60;99.90;;;;;;5080831;28;20199;-77
2023/05/02 02:22:49;;;;;;;2.78;1.23;;;21.50;99.90;;;;;;5078355;28;20205;-74
2023/05/02 02:25:21;;;;;;;2.35;1.10;;;21.40;99.90;;;;;;5087815;28;20235;-77
2023/05/02 02:27:53;;;;;;;2.85;1.13;;;21.40;99.90;;;;;;5076839;28;20197;-75
2023/05/02 02:30:26;;;;;;;3.13;1.65;;;21.40;99.90;;;;;;5081053;28;20192;-77
2023/05/02 02:32:57;;;;;;;1.92;1.30;;;21.40;99.90;;;;;;5091182;28;20219;-76
2023/05/02 02:35:33;;;;;;;3.33;1.48;;;21.40;99.90;;;;;;5078801;28;20224;-76
2023/05/02 02:38:13;;;;;;;2.83;1.40;;;21.40;99.90;;;;;;5076669;28;20196;-78
2023/05/02 02:40:50;;;;;;;1.20;1.08;;;21.40;99.90;;;;;;5086083;28;20196;-75
2023/05/02 02:43:27;;;;;;;1.70;0.93;;;21.40;99.90;;;;;;5092968;28;20191;-77
2023/05/02 02:46:14;;;;;;;1.90;1.05;;;21.50;99.90;;;;;;5086445;28;20211;-74
2023/05/02 02:48:51;;;;;;;1.52;1.15;;;21.60;99.90;;;;;;5072850;28;20193;-76
2023/05/02 02:51:33;;;;;;;1.98;1.00;;;21.70;99.90;;;;;;5073587;28;20644;-76
2023/05/02 02:54:09;;;;;;;1.50;1.05;;;21.90;99.90;;;;;;5083440;28;20546;-75
2023/05/02 02:56:44;;;;;;;1.50;1.10;;;22.20;99.90;;;;;;5086577;28;20227;-76
2023/05/02 02:59:20;;;;;;;2.47;0.90;;;22.40;99.90;;;;;;5091666;28;20204;-76
2023/05/02 03:02:03;;;;;;;1.92;1.02;;;22.50;99.90;;;;;;5087253;28;20196;-75
2023/05/02 03:04:39;;;;;;;0.80;0.80;;;22.40;99.90;;;;;;5084246;28;20208;-77
2023/05/02 03:07:11;;;;;;;2.90;0.90;;;22.30;99.90;;;;;;5086454;28;20203;-76
2023/05/02 03:09:45;;;;;;;1.02;0.90;;;22.10;99.90;;;;;;5087440;28;20192;-75
2023/05/02 03:12:16;;;;;;;1.67;0.90;;;22.10;99.90;;;;;;5092147;28;20643;-78
2023/05/02 03:14:48;;;;;;;0.65;0.65;;;22.10;99.90;;;;;;5096785;28;20199;-74
2023/05/02 03:17:21;;;;;;;0.90;0.90;;;22.00;99.90;;;;;;5093958;28;20586;-75
2023/05/02 03:19:52;;;;;;;1.95;1.00;;;21.80;99.90;;;;;;5089294;28;20204;-75
2023/05/02 03:22:23;;;;;;;1.08;0.90;;;21.70;99.90;;;;;;5093049;28;20651;-74
2023/05/02 03:24:54;;;;;;;1.00;0.70;;;21.70;99.90;;;;;;5090704;28;20196;-76
2023/05/02 03:27:25;;;;;;;3.17;0.80;;;21.80;99.90;;;;;;5079015;28;20208;-75
2023/05/02 03:29:56;;;;;;;0.70;0.70;;;21.90;99.90;;;;;;5099447;28;20670;-76
2023/05/02 03:32:29;;;;;;;1.88;1.05;;;22.10;99.90;;;;;;5085402;28;20221;-76
2023/05/02 03:35:00;;;;;;;1.30;0.90;;;22.10;99.90;;;;;;5084061;28;20246;-75
2023/05/02 03:37:31;;;;;;;2.40;1.10;;;22.10;99.90;;;;;;5095288;28;20211;-78
2023/05/02 03:40:05;;;;;;;0.68;0.68;;;22.20;99.90;;;;;;5079125;28;20193;-78
2023/05/02 03:42:40;;;;;;;1.45;0.90;;;22.20;99.90;;;;;;5091239;28;20659;-77
2023/05/02 03:45:12;;;;;;;1.48;0.85;;;22.20;99.90;;;;;;5095164;28;20238;-77
2023/05/02 03:47:45;;;;;;;2.00;0.85;;;22.10;99.90;;;;;;5096161;28;20192;-77
2023/05/02 03:50:16;;;;;;;0.90;0.88;;;22.10;99.90;;;;;;5076364;28;20200;-77
2023/05/02 03:52:47;;;;;;;0.93;0.80;;;22.00;99.90;;;;;;5078714;28;20547;-76
2023/05/02 03:55:18;;;;;;;1.10;1.00;;;22.00;99.90;;;;;;5095890;28;20259;-76
2023/05/02 03:57:49;;;;;;;1.20;0.90;;;22.00;99.90;;;;;;5097003;28;20204;-77
2023/05/02 04:00:20;;;;;;;1.10;0.80;;;22.10;99.90;;;;;;5099956;28;20191;-77
2023/05/02 04:02:53;;;;;;;1.15;0.80;;;22.10;99.90;;;;;;5092881;28;20254;-78
2023/05/02 04:05:24;;;;;;;1.02;0.80;;;22.10;99.90;;;;;;5095552;28;20559;-77
2023/05/02 04:07:55;;;;;;;1.42;0.90;;;22.20;99.90;;;;;;5083080;28;20213;-75
2023/05/02 04:10:26;;;;;;;2.60;1.05;;;22.30;99.90;;;;;;5075340;28;20189;-76
2023/05/02 04:12:57;;;;;;;1.20;0.90;;;22.20;99.90;;;;;;5093894;28;20189;-76
2023/05/02 04:15:28;;;;;;;0.82;0.68;;;22.10;99.90;;;;;;5075233;28;20559;-77
2023/05/02 04:18:03;;;;;;;0.70;0.63;;;21.90;99.90;;;;;;5082945;28;20738;-76
2023/05/02 04:20:34;;;;;;;1.17;0.70;;;21.80;99.90;;;;;;5095348;28;20203;-75
2023/05/02 04:23:06;;;;;;;1.40;0.80;;;21.80;99.90;;;;;;5094998;28;20650;-78
2023/05/02 04:25:37;;;;;;;0.93;0.70;;;21.70;99.90;;;;;;5076994;28;20201;-76
2023/05/02 04:28:08;;;;;;;1.52;0.90;;;21.60;99.90;;;;;;5074957;28;20276;-78
2023/05/02 04:30:40;;;;;;;1.63;0.60;;;21.50;99.90;;;;;;5086783;28;20648;-77
2023/05/02 04:33:13;;;;;;;1.52;0.50;;;21.50;99.90;;;;;;5092453;28;20616;-76
2023/05/02 04:35:44;;;;;;;0.88;0.80;;;21.50;99.90;;;;;;5091148;28;20204;-75
2023/05/02 04:38:15;;;;;;;0.90;0.70;;;21.50;99.90;;;;;;5097369;28;20192;-76
2023/05/02 04:40:46;;;;;;;1.00;0.90;;;21.40;99.90;;;;;;5086228;28;20201;-76
2023/05/02 04:43:17;;;;;;;0.73;0.73;;;21.40;99.90;;;;;;5093901;28;20192;-77
2023/05/02 04:45:48;;;;;;;1.02;0.88;;;21.40;99.90;;;;;;5095015;28;20192;-76
2023/05/02 04:48:21;;;;;;;1.75;0.95;;;21.40;99.90;;;;;;5086205;28;20204;-76
2023/05/02 04:50:54;;;;;;;0.68;0.68;;;21.50;99.90;;;;;;5085820;28;20193;-74
2023/05/02 04:53:25;;;;;;;2.70;0.80;;;21.70;99.90;;;;;;5074001;28;20540;-74
2023/05/02 04:55:56;;;;;;;2.33;0.80;;;21.90;99.90;;;;;;5083319;28;20188;-75
2023/05/02 04:58:27;;;;;;;0.80;0.60;;;22.00;99.90;;;;;;5094580;28;20208;-77
2023/05/02 05:00:59;;;;;;;1.65;0.70;;;22.10;99.90;;;;;;5096707;28;20201;-77
2023/05/02 05:03:32;;;;;;;1.08;0.60;;;22.20;99.90;;;;;;5101735;28;20243;-75
2023/05/02 05:06:03;;;;;;;1.38;0.70;;;22.10;99.90;;;;;;5095208;28;20187;-76
2023/05/02 05:08:37;;;;;;;0.60;0.60;;;22.00;99.90;;;;;;5104897;28;20196;-75
2023/05/02 05:11:08;;;;;;;0.50;0.50;;;21.80;99.90;;;;;;5093887;28;20648;-75
2023/05/02 05:13:39;;;;;;;0.50;0.50;;;21.70;99.90;;;;;;5093275;28;20196;-77
2023/05/02 05:16:11;;;;;;;1.25;0.50;;;21.70;99.90;;;;;;5093476;28;20203;-74
2023/05/02 05:18:44;;;;;;;0.88;0.52;;;21.70;99.90;;;;;;5094189;28;20631;-77
2023/05/02 05:21:15;;;;;;;0.52;0.52;;;21.70;99.90;;;;;;5094479;28;20189;-75
2023/05/02 05:23:46;;;;;;;1.65;0.60;;;21.80;99.90;;;;;;5093702;28;20196;-73
2023/05/02 05:26:18;;;;;;;0.85;0.70;;;21.90;99.90;;;;;;5093056;28;20250;-75
2023/05/02 05:28:49;;;;;;;1.35;0.52;;;21.90;99.90;;;;;;5095826;28;20520;-77
2023/05/02 05:31:20;;;;;;;0.93;0.45;;;21.80;99.90;;;;;;5093970;28;20212;-76
2023/05/02 05:33:53;;;;;;;0.63;0.50;;;21.60;99.90;;;;;;5097690;28;20216;-75
2023/05/02 05:36:25;;;;;;;1.25;0.65;;;21.50;99.90;;;;;;5095876;28;20215;-78
2023/05/02 05:38:56;;;;;;;1.20;0.60;;;21.50;99.90;;;;;;5082490;28;20192;-77
2023/05/02 05:41:27;;;;;;;1.45;0.50;;;21.40;99.90;;;;;;5093751;28;20200;-79
2023/05/02 05:43:58;;;;;;;0.98;0.50;;;21.40;99.90;;;;;;5106742;28;20621;-75
2023/05/02 05:46:29;;;;;;;0.38;0.38;;;21.30;99.90;;;;;;5112253;28;20220;-74
2023/05/02 05:49:02;;;;;;;0.77;0.60;;;21.30;99.90;;;;;;5112705;28;20525;-75
2023/05/02 05:51:33;;;;;;;1.13;0.50;;;21.20;99.90;;;;;;5111258;28;20192;-75
2023/05/02 05:54:04;;;;;;;0.98;0.50;;;21.20;99.90;;;;;;5092730;28;20215;-76
2023/05/02 05:56:35;;;;;;;1.90;0.77;;;21.20;99.90;;;;;;5103015;28;20211;-75
2023/05/02 05:59:06;;;;;;;0.40;0.40;;;21.30;99.90;;;;;;5098211;28;20571;-77
2023/05/02 06:01:37;;;;;;;0.40;0.40;;;21.40;99.90;;;;;;5093096;28;20196;-77
2023/05/02 06:04:10;;;;;;;3.65;0.70;;;21.50;99.90;;;;;;5073399;28;20244;-75
2023/05/02 06:06:41;;;;;;;1.00;0.50;;;21.40;99.90;;;;;;5090592;28;20199;-75
2023/05/02 06:09:12;;;;;;;1.05;0.60;;;21.40;99.90;;;;;;5092487;28;20196;-77
2023/05/02 06:11:43;;;;;;;2.15;0.50;;;21.40;99.90;;;;;;5099616;28;20184;-75
2023/05/02 06:14:15;;;;;;;2.17;0.65;;;21.40;99.90;;;;;;5106310;28;20195;-75
2023/05/02 06:16:46;;;;;;;0.38;0.38;;;21.30;99.90;;;;;;5078523;28;20637;-78
2023/05/02 06:19:19;;;;;;;1.20;0.70;;;21.30;99.90;;;;;;5097707;28;20805;-75
2023/05/02 06:21:50;;;;;;;0.60;0.40;;;21.20;99.90;;;;;;5092258;28;20187;-73
2023/05/02 06:24:21;;;;;;;0.77;0.50;;;21.10;99.90;;;;;;5080221;28;20681;-74
2023/05/02 06:26:52;;;;;;;0.75;0.43;;;21.00;99.90;;;;;;5093194;28;20188;-77
2023/05/02 06:29:23;;;;;;;1.67;0.60;;;21.00;99.90;;;;;;5094368;28;20237;-77
2023/05/02 06:31:58;;;;;;;0.98;0.40;;;20.90;99.90;;;;;;5093146;28;20228;-75
2023/05/02 06:34:33;;;;;;;1.60;0.60;;;20.90;99.90;;;;;;5078252;28;20194;-74
2023/05/02 06:37:04;;;;;;;2.38;0.60;;;20.90;99.90;;;;;;5098927;28;20220;-74
2023/05/02 06:39:36;;;;;;;1.13;0.50;;;20.80;99.90;;;;;;5073973;28;20637;-76
2023/05/02 06:42:08;;;;;;;1.25;0.50;;;20.80;99.90;;;;;;5088208;28;20195;-76
2023/05/02 06:44:39;;;;;;;1.80;0.60;;;20.70;99.90;;;;;;5076855;28;20201;-75
2023/05/02 06:47:10;;;;;;;3.20;0.55;;;20.70;99.90;;;;;;5091965;28;20196;-74
2023/05/02 06:49:43;;;;;;;0.70;0.50;;;20.60;99.90;;;;;;5089524;28;20581;-76
2023/05/02 06:52:14;;;;;;;1.42;0.50;;;20.60;99.90;;;;;;5096804;28;20196;-75
2023/05/02 06:54:45;;;;;;;0.85;0.40;;;20.50;99.90;;;;;;5097225;28;20184;-75
2023/05/02 06:57:16;;;;;;;0.70;0.40;;;20.50;99.90;;;;;;5099872;28;20203;-74
2023/05/02 06:59:47;;;;;;;1.35;0.57;;;20.40;99.90;;;;;;5105728;28;20189;-75
2023/05/02 07:02:18;;;;;;;4.05;0.70;;;20.40;99.90;;;;;;5096936;28;20558;-75
2023/05/02 07:04:51;;;;;;;0.63;0.50;;;20.40;99.90;;;;;;5105464;28;20632;-75
2023/05/02 07:07:22;;;;;;;0.77;0.70;;;20.40;99.90;;;;;;5081271;28;20203;-76
2023/05/02 07:09:53;;;;;;;1.55;0.60;;;20.30;99.90;;;;;;5096851;28;20188;-75
2023/05/02 07:12:24;;;;;;;0.55;0.50;;;20.30;99.90;;;;;;5100101;28;20668;-74
2023/05/02 07:14:55;;;;;;;0.75;0.40;;;20.20;99.90;;;;;;5097508;28;20195;-75
2023/05/02 07:17:26;;;;;;;1.20;0.70;;;20.10;99.90;;;;;;5104521;28;20569;-75
2023/05/02 07:20:00;;;;;;;1.02;0.85;;;20.10;99.90;;;;;;5096873;28;20185;-73
2023/05/02 07:22:31;;;;;;;0.60;0.60;;;20.10;99.90;;;;;;5095350;28;20192;-74
2023/05/02 07:25:03;;;;;;;1.60;0.60;;;20.10;99.90;;;;;;5098360;28;20195;-74
2023/05/02 07:27:34;;;;;;;1.77;0.68;;;20.00;99.90;;;;;;5092619;28;20589;-75
2023/05/02 07:30:05;;;;;;;1.42;0.60;;;20.00;99.90;;;;;;5095641;28;20185;-75
2023/05/02 07:32:36;;;;;;;0.77;0.50;;;20.00;99.90;;;;;;5096563;28;20247;-76
2023/05/02 07:35:10;;;;;;;1.77;0.60;;;20.00;99.90;;;;;;5095396;28;20294;-77
2023/05/02 07:37:41;;;;;;;0.80;0.68;;;19.90;99.90;;;;;;5094161;28;20235;-77
2023/05/02 07:40:12;;;;;;;1.95;0.70;;;19.90;99.90;;;;;;5095926;28;20561;-76
2023/05/02 07:42:44;;;;;;;1.45;0.93;;;19.90;99.90;;;;;;5094953;28;20189;-76
2023/05/02 07:45:15;;;;;;;1.17;0.70;;;19.80;99.90;;;;;;5096504;28;20228;-75
2023/05/02 07:47:47;;;;;;;1.48;1.00;;;19.80;99.90;;;;;;5093027;28;20256;-75
2023/05/02 07:50:20;;;;;;;3.22;0.70;;;19.70;99.90;;;;;;5081537;28;20249;-75
2023/05/02 07:52:51;;;;;;;2.72;0.73;;;19.60;99.90;;;;;;5096268;28;20192;-74
2023/05/02 07:55:25;;;;;;;2.72;1.00;;;19.60;99.90;;;;;;5095731;28;20196;-76
2023/05/02 07:57:56;;;;;;;2.15;0.90;;;19.50;99.90;;;;;;5095329;28;20311;-75
2023/05/02 08:00:27;;;;;;;2.50;0.90;;;19.40;99.90;;;;;;5095675;28;20192;-75
2023/05/02 08:02:58;;;;;;;3.47;0.70;;;19.30;99.90;;;;;;5084419;28;20225;-75
2023/05/02 08:05:32;;;;;;;0.88;0.80;;;19.20;99.90;;;;;;5082959;28;20330;-75
2023/05/02 08:08:03;;;;;;;2.63;1.00;;;19.20;99.90;;;;;;5085557;28;20192;-74
2023/05/02 08:10:34;;;;;;;1.27;1.10;;;19.10;99.90;;;;;;5088467;28;20215;-76
2023/05/02 08:13:05;;;;;;;2.75;1.08;;;19.10;99.90;;;;;;5102530;28;20277;-74
2023/05/02 08:15:36;;;;;;;1.35;1.10;;;19.10;99.90;;;;;;5082998;28;20200;-76
2023/05/02 08:18:07;;;;;;;1.98;1.00;;;19.10;99.90;;;;;;5090866;28;20223;-75
2023/05/02 08:20:40;;;;;;;1.80;1.10;;;19.20;99.90;;;;;;5083523;28;20201;-75
2023/05/02 08:23:11;;;;;;;2.28;1.10;;;19.20;99.90;;;;;;5084059;28;20219;-75
2023/05/02 08:25:43;;;;;;;1.65;1.08;;;19.30;99.90;;;;;;5079237;28;20200;-74
2023/05/02 08:28:14;;;;;;;1.38;1.05;;;19.40;99.90;;;;;;5078611;28;20215;-74
2023/05/02 08:30:45;;;;;;;2.30;1.15;;;19.50;99.90;;;;;;5085235;28;20199;-75
2023/05/02 08:33:16;;;;;;;1.25;0.93;;;19.50;99.90;;;;;;5095124;28;20219;-75
2023/05/02 08:35:50;;;;;;;2.75;0.98;;;19.50;99.90;;;;;;5094141;28;20207;-75
2023/05/02 08:38:21;;;;;;;1.20;0.80;;;19.60;99.90;;;;;;5086276;28;20216;-75
2023/05/02 08:40:52;;;;;;;2.00;0.80;;;19.60;99.90;;;;;;5092682;28;20663;-75
2023/05/02 08:43:24;;;;;;;0.90;0.82;;;19.60;99.90;;;;;;5087159;28;20219;-75
2023/05/02 08:46:01;;;;;;;0.90;0.63;;;19.60;99.90;;;;;;5086830;28;20201;-75
2023/05/02 08:48:33;;;;;;;1.77;0.80;;;19.60;99.90;;;;;;5086955;28;20203;-75
2023/05/02 08:51:09;;;;;;;0.70;0.60;;;19.60;99.90;;;;;;5098626;28;20204;-75
2023/05/02 08:53:41;;;;;;;1.88;1.02;;;19.60;99.90;;;;;;5081899;28;20199;-75
2023/05/02 08:56:13;;;;;;;0.65;0.60;;;19.60;99.90;;;;;;5090937;28;20203;-75
2023/05/02 08:58:44;;;;;;;1.23;0.60;;;19.60;99.90;;;;;;5078938;28;20221;-75
2023/05/02 09:01:18;;;;;;;1.73;0.63;;;19.60;99.90;;;;;;5089509;28;20200;-75
2023/05/02 09:03:51;;;;;;;1.17;0.70;;;19.60;99.90;;;;;;5084303;28;20600;-75
2023/05/02 09:06:25;;;;;;;0.98;0.70;;;19.50;99.90;;;;;;5085273;28;20718;-76
2023/05/02 09:08:56;;;;;;;1.48;0.70;;;19.50;99.90;;;;;;5086120;28;20196;-76
2023/05/02 09:11:28;;;;;;;1.17;0.70;;;19.50;99.90;;;;;;5089251;28;20203;-76
2023/05/02 09:14:02;;;;;;;1.50;0.70;;;19.40;99.90;;;;;;5091327;28;20192;-75
2023/05/02 09:16:41;;;;;;;1.80;0.70;;;19.40;99.90;;;;;;5082861;28;20257;-76
2023/05/02 09:19:25;;;;;;;2.00;0.70;;;19.40;99.90;;;;;;5091348;28;20223;-74
2023/05/02 09:22:02;;;;;;;1.17;0.70;;;19.40;99.90;;;;;;5080284;28;20200;-75
2023/05/02 09:24:33;;;;;;;1.15;0.82;;;19.30;99.90;;;;;;5077757;28;20287;-76
2023/05/02 09:27:05;;;;;;;1.77;0.80;;;19.30;99.90;;;;;;5073763;28;20672;-74
2023/05/02 09:29:37;;;;;;;1.40;0.90;;;19.20;99.90;;;;;;5089985;28;20575;-75
2023/05/02 09:32:08;;;;;;;1.27;0.80;;;19.20;99.90;;;;;;5092351;28;20331;-75
2023/05/02 09:34:39;;;;;;;1.48;0.70;;;19.10;99.90;;;;;;5086694;28;20606;-75
2023/05/02 09:37:12;;;;;;;0.90;0.60;;;19.10;99.90;;;;;;5085292;28;20249;-75
2023/05/02 09:40:03;;;;;;;0.77;0.60;;;19.00;99.90;;;;;;5093249;28;20586;-76
2023/05/02 09:42:35;;;;;;;1.15;0.60;;;19.00;99.90;;;;;;5093594;28;20551;-76
2023/05/02 09:45:06;;;;;;;0.80;0.57;;;18.90;99.90;;;;;;5087658;28;20196;-75
2023/05/02 09:47:37;;;;;;;1.45;0.60;;;18.90;99.90;;;;;;5089797;28;20666;-76
2023/05/02 09:50:09;;;;;;;1.88;0.60;;;18.90;99.90;;;;;;5081700;28;20212;-75
2023/05/02 09:52:42;;;;;;;0.70;0.52;;;18.90;99.90;;;;;;5089974;28;20207;-76
2023/05/02 09:55:24;;;;;;;1.17;0.70;;;18.80;99.90;;;;;;5090621;28;20192;-75
2023/05/02 09:57:55;;;;;;;0.70;0.60;;;18.80;99.90;;;;;;5087776;28;20219;-75
2023/05/02 10:00:40;;;;;;;0.50;0.50;;;18.80;99.90;;;;;;5084146;28;20200;-75
2023/05/02 10:03:11;;;;;;;1.20;0.70;;;18.80;99.90;;;;;;5081201;28;20228;-75
2023/05/02 10:05:43;;;;;;;1.38;0.80;;;18.70;99.90;;;;;;5092082;28;20200;-76
2023/05/02 10:08:18;;;;;;;0.68;0.63;;;18.60;99.90;;;;;;5091441;28;20199;-74
2023/05/02 10:10:54;;;;;;;0.88;0.57;;;18.60;99.90;;;;;;5093943;28;20200;-76
2023/05/02 10:13:26;;;;;;;0.93;0.68;;;18.60;99.90;;;;;;5080447;28;20204;-75
2023/05/02 10:16:03;;;;;;;1.45;0.50;;;18.60;99.90;;;;;;5080436;28;20201;-76
2023/05/02 10:18:40;;;;;;;0.35;0.35;;;18.60;99.90;;;;;;5088586;28;20222;-77
2023/05/02 10:21:13;;;;;;;0.60;0.30;;;18.60;99.90;;;;;;5088761;28;20191;-75
2023/05/02 10:23:47;;;;;;;1.13;0.40;;;18.50;99.90;;;;;;5080225;28;20283;-76
2023/05/02 10:26:21;;;;;;;1.25;0.47;;;18.50;99.90;;;;;;5090508;28;20211;-75
2023/05/02 10:28:53;;;;;;;1.95;0.60;;;18.40;99.90;;;;;;5089737;28;20568;-77
2023/05/02 10:31:25;;;;;;;1.38;0.60;;;18.40;99.90;;;;;;5083073;28;20231;-75
2023/05/02 10:34:00;;;;;;;1.85;0.70;;;18.40;99.90;;;;;;5089945;28;20208;-75
2023/05/02 10:36:33;;;;;;;1.17;0.70;;;18.30;99.90;;;;;;5084995;28;20531;-75
2023/05/02 10:39:07;;;;;;;1.65;0.57;;;18.30;99.90;;;;;;5101627;28;20221;-75
2023/05/02 10:41:40;;;;;;;1.30;0.73;;;18.30;99.90;;;;;;5090505;28;20573;-75
2023/05/02 10:44:12;;;;;;;2.17;0.68;;;18.20;99.90;;;;;;5090257;28;20202;-75
2023/05/02 10:46:44;;;;;;;1.50;0.88;;;18.20;99.90;;;;;;5087027;28;20196;-75
2023/05/02 10:49:16;;;;;;;1.10;0.70;;;18.20;99.90;;;;;;5076376;28;20204;-75
2023/05/02 10:51:47;;;;;;;1.50;0.70;;;18.10;99.90;;;;;;5073800;28;20320;-75
2023/05/02 10:54:27;;;;;;;1.08;0.55;;;18.00;99.90;;;;;;5092718;28;20203;-75
2023/05/02 10:57:10;;;;;;;1.17;0.60;;;18.00;99.90;;;;;;5093127;28;20191;-76
2023/05/02 10:59:41;;;;;;;0.90;0.60;;;18.00;99.90;;;;;;5085555;28;20216;-76
2023/05/02 11:02:43;;;;;;;0.40;0.40;;;17.90;99.90;;;;;;5089823;28;20211;-75
2023/05/02 11:05:14;;;;;;;0.75;0.50;;;17.90;99.90;;;;;;5094638;28;20199;-76
2023/05/02 11:07:46;;;;;;;1.40;0.50;;;17.80;99.90;;;;;;5106248;28;20196;-75
2023/05/02 11:10:31;;;;;;;0.60;0.60;;;17.80;99.90;;;;;;5113015;28;20191;-76
2023/05/02 11:13:02;;;;;;;1.67;0.60;;;17.60;99.90;;;;;;5086329;28;20665;-75
2023/05/02 11:15:58;;;;;;;1.25;0.60;;;17.50;99.90;;;;;;5082541;28;20187;-77
2023/05/02 11:18:49;;;;;;;1.75;0.70;;;17.40;99.90;;;;;;5111285;28;20208;-76
2023/05/02 11:21:30;;;;;;;1.30;0.82;;;17.30;99.90;;;;;;5108032;28;20278;-76
2023/05/02 11:24:36;;;;;;;1.38;0.65;;;17.20;99.90;;;;;;5092803;28;20568;-75
2023/05/02 11:27:45;;;;;;;1.30;0.80;;;17.10;99.90;;;;;;5089233;28;20198;-75
2023/05/02 11:30:16;;;;;;;1.42;0.70;;;17.10;99.90;;;;;;5070759;28;20204;-76
2023/05/02 11:33:19;;;;;;;1.55;0.60;;;17.00;99.90;;;;;;5091879;28;20590;-75
2023/05/02 11:35:53;;;;;;;1.08;0.70;;;17.00;99.90;;;;;;5054012;28;20194;-76
2023/05/02 11:38:24;;;;;;;0.95;0.80;;;17.00;99.90;;;;;;5090032;28;20593;-76
2023/05/02 11:41:01;;;;;;;1.00;0.70;;;17.10;99.90;;;;;;5105994;28;20557;-75
2023/05/02 11:43:34;;;;;;;0.88;0.70;;;17.10;99.90;;;;;;5113414;28;20195;-76
2023/05/02 11:46:08;;;;;;;0.95;0.65;;;17.20;99.90;;;;;;5095243;27;20224;-76
2023/05/02 11:48:39;;;;;;;1.60;0.65;;;17.10;99.90;;;;;;5113771;28;20184;-75
2023/05/02 11:51:10;;;;;;;1.27;0.70;;;17.20;99.90;;;;;;5117071;28;20195;-76
2023/05/02 11:53:43;;;;;;;1.98;0.80;;;17.20;99.90;;;;;;5116787;28;20619;-76
2023/05/02 11:56:15;;;;;;;0.90;0.65;;;17.20;99.90;;;;;;5116288;28;20188;-76
2023/05/02 11:58:59;;;;;;;0.90;0.70;;;17.10;99.90;;;;;;5102318;28;20269;-76
2023/05/02 12:01:31;;;;;;;1.48;0.60;;;17.10;99.90;;;;;;5095712;28;20192;-77
2023/05/02 12:04:06;;;;;;;1.67;0.70;;;17.20;99.90;;;;;;5082252;28;20239;-77
2023/05/02 12:06:37;;;;;;;0.73;0.60;;;17.20;99.90;;;;;;5075326;28;20189;-75
2023/05/02 12:09:12;;;;;;;1.55;0.93;;;17.10;99.90;;;;;;5075486;28;20193;-77
2023/05/02 12:11:45;;;;;;;1.48;0.70;;;17.10;99.90;;;;;;5086003;28;20188;-76
2023/05/02 12:14:19;;;;;;;1.27;0.70;;;17.10;99.90;;;;;;5092263;28;20200;-74
2023/05/02 12:16:50;;;;;;;1.30;0.80;;;17.10;99.90;;;;;;5095435;28;20539;-77
2023/05/02 12:19:21;;;;;;;0.77;0.60;;;17.00;99.90;;;;;;5075353;28;20227;-76
2023/05/02 12:21:52;;;;;;;1.02;0.60;;;17.00;99.90;;;;;;5095294;28;20223;-77
2023/05/02 12:24:23;;;;;;;1.00;0.60;;;17.00;99.90;;;;;;5095468;28;20557;-75
2023/05/02 12:27:12;;;;;;;1.10;0.63;;;17.00;99.90;;;;;;5095420;28;20207;-76
2023/05/02 12:29:46;;;;;;;1.02;0.60;;;17.00;99.90;;;;;;5095242;28;20199;-76
2023/05/02 12:32:28;;;;;;;0.90;0.60;;;17.00;99.90;;;;;;5100365;28;20660;-76
2023/05/02 12:35:00;;;;;;;1.05;0.70;;;16.90;99.90;;;;;;5115803;28;20549;-75
2023/05/02 12:37:31;;;;;;;1.05;0.80;;;16.90;99.90;;;;;;5097009;28;20215;-77
2023/05/02 12:40:02;;;;;;;1.45;0.70;;;16.90;99.90;;;;;;5076187;28;20224;-75
2023/05/02 12:42:33;;;;;;;1.15;0.77;;;16.80;99.90;;;;;;5076701;28;20196;-75
2023/05/02 12:45:07;;;;;;;1.38;0.80;;;16.70;99.90;;;;;;5081776;28;20250;-76
2023/05/02 12:47:47;;;;;;;0.90;0.80;;;16.70;99.90;;;;;;5092720;28;20189;-78
2023/05/02 12:50:18;;;;;;;2.50;0.80;;;16.60;99.90;;;;;;5094933;28;20196;-77
2023/05/02 12:52:53;;;;;;;0.70;0.70;;;16.60;99.90;;;;;;5095169;28;20196;-76
2023/05/02 12:55:26;;;;;;;3.22;0.90;;;16.50;99.90;;;;;;5078367;28;20204;-76
2023/05/02 12:58:04;;;;;;;2.60;1.00;;;16.50;99.90;;;;;;5074578;28;20193;-77
2023/05/02 13:00:38;;;;;;;3.47;0.82;;;16.40;99.90;;;;;;5075938;28;20700;-77
2023/05/02 13:03:09;;;;;;;1.83;1.08;;;16.30;99.90;;;;;;5114960;28;20238;-77
2023/05/02 13:05:40;;;;;;;2.33;1.10;;;16.30;99.90;;;;;;5115202;28;20188;-75
2023/05/02 13:08:11;;;;;;;1.63;0.95;;;16.30;99.90;;;;;;5115343;28;20198;-75
2023/05/02 13:10:42;;;;;;;1.85;0.90;;;16.20;99.90;;;;;;5109861;28;20212;-75
2023/05/02 13:13:14;;;;;;;2.50;1.10;;;16.20;99.90;;;;;;5074050;28;20200;-76
2023/05/02 13:15:47;;;;;;;1.73;1.02;;;16.10;99.90;;;;;;5078941;28;20640;-75
2023/05/02 13:18:18;;;;;;;1.50;0.95;;;16.10;99.90;;;;;;5094440;28;20206;-75
2023/05/02 13:20:49;;;;;;;1.83;1.00;;;16.00;99.90;;;;;;5094223;28;20311;-77